sensor_id;sensor_type;location;lat;lon;timestamp;temperature;humidity
35647;DHT22;28680;45.642;13.756;2023-11-19T00:00:42;10.20;99.90
35647;DHT22;28680;45.642;13.756;2023-11-19T00:03:08;10.20;99.90
35647;DHT22;28680;45.642;13.756;2023-11-19T00:05:34;10.20;99.90
35647;DHT22;28680;45.642;13.756;2023-11-19T00:07:59;10.20;99.90
35647;DHT22;28680;45.642;13.756;2023-11-19T00:10:25;10.20;99.90
35647;DHT22;28680;45.642;13.756;2023-11-19T00:12:51;10.20;99.90
35647;DHT22;28680;45.642;13.756;2023-11-19T00:15:17;10.10;99.90
35647;DHT22;28680;45.642;13.756;2023-11-19T00:17:46;10.00;99.90
35647;DHT22;28680;45.642;13.756;2023-11-19T00:20:16;10.00;99.90
35647;DHT22;28680;45.642;13.756;2023-11-19T00:22:42;10.00;99.90
35647;DHT22;28680;45.642;13.756;2023-11-19T00:25:09;10.00;99.90
35647;DHT22;28680;45.642;13.756;2023-11-19T00:27:35;10.10;99.90
35647;DHT22;28680;45.642;13.756;2023-11-19T00:30:01;10.10;99.90
35647;DHT22;28680;45.642;13.756;2023-11-19T00:32:27;9.90;99.90
35647;DHT22;28680;45.642;13.756;2023-11-19T00:34:52;10.10;99.90
35647;DHT22;28680;45.642;13.756;2023-11-19T00:37:18;10.00;99.90
35647;DHT22;28680;45.642;13.756;2023-11-19T00:39:44;9.90;99.90
35647;DHT22;28680;45.642;13.756;2023-11-19T00:42:10;9.80;99.90
35647;DHT22;28680;45.642;13.756;2023-11-19T00:44:36;9.70;99.90
35647;DHT22;28680;45.642;13.756;2023-11-19T00:47:02;9.70;99.90
35647;DHT22;28680;45.642;13.756;2023-11-19T00:49:28;9.80;99.90
35647;DHT22;28680;45.642;13.756;2023-11-19T00:51:53;9.80;99.90
35647;DHT22;28680;45.642;13.756;2023-11-19T00:54:19;9.90;99.90
35647;DHT22;28680;45.642;13.756;2023-11-19T00:56:45;9.90;99.90
35647;DHT22;28680;45.642;13.756;2023-11-19T00:59:11;9.90;99.90
35647;DHT22;28680;45.642;13.756;2023-11-19T01:01:36;9.90;99.90
35647;DHT22;28680;45.642;13.756;2023-11-19T01:04:02;9.80;99.90
35647;DHT22;28680;45.642;13.756;2023-11-19T01:08:54;9.80;99.90
35647;DHT22;28680;45.642;13.756;2023-11-19T01:11:20;9.80;99.90
35647;DHT22;28680;45.642;13.756;2023-11-19T01:13:46;9.70;99.90
35647;DHT22;28680;45.642;13.756;2023-11-19T01:16:12;9.70;99.90
35647;DHT22;28680;45.642;13.756;2023-11-19T01:18:38;9.70;99.90
35647;DHT22;28680;45.642;13.756;2023-11-19T01:21:04;9.80;99.90
35647;DHT22;28680;45.642;13.756;2023-11-19T01:23:30;9.80;99.90
35647;DHT22;28680;45.642;13.756;2023-11-19T01:25:56;9.80;99.90
35647;DHT22;28680;45.642;13.756;2023-11-19T01:28:21;9.80;99.90
35647;DHT22;28680;45.642;13.756;2023-11-19T01:30:50;9.80;99.90
35647;DHT22;28680;45.642;13.756;2023-11-19T01:33:15;9.80;99.90
35647;DHT22;28680;45.642;13.756;2023-11-19T01:35:41;9.70;99.90
35647;DHT22;28680;45.642;13.756;2023-11-19T01:38:07;9.70;99.90
35647;DHT22;28680;45.642;13.756;2023-11-19T01:40:34;9.80;99.90
35647;DHT22;28680;45.642;13.756;2023-11-19T01:43:00;9.80;99.90
35647;DHT22;28680;45.642;13.756;2023-11-19T01:45:29;9.80;99.90
35647;DHT22;28680;45.642;13.756;2023-11-19T01:47:59;9.90;99.90
35647;DHT22;28680;45.642;13.756;2023-11-19T01:50:25;9.90;99.90
35647;DHT22;28680;45.642;13.756;2023-11-19T01:52:54;9.90;99.90
35647;DHT22;28680;45.642;13.756;2023-11-19T01:55:23;9.80;99.90
35647;DHT22;28680;45.642;13.756;2023-11-19T01:57:49;9.80;99.90
35647;DHT22;28680;45.642;13.756;2023-11-19T02:00:16;9.70;99.90
35647;DHT22;28680;45.642;13.756;2023-11-19T02:02:45;9.70;99.90
35647;DHT22;28680;45.642;13.756;2023-11-19T02:05:12;9.80;99.90
35647;DHT22;28680;45.642;13.756;2023-11-19T02:07:38;9.70;99.90
35647;DHT22;28680;45.642;13.756;2023-11-19T02:10:04;9.70;99.90
35647;DHT22;28680;45.642;13.756;2023-11-19T02:12:31;9.60;99.90
35647;DHT22;28680;45.642;13.756;2023-11-19T02:14:59;9.70;99.90
35647;DHT22;28680;45.642;13.756;2023-11-19T02:17:26;9.70;99.90
35647;DHT22;28680;45.642;13.756;2023-11-19T02:19:52;9.70;99.90
35647;DHT22;28680;45.642;13.756;2023-11-19T02:22:19;9.80;99.90
35647;DHT22;28680;45.642;13.756;2023-11-19T02:24:45;9.90;99.90
35647;DHT22;28680;45.642;13.756;2023-11-19T02:27:16;9.90;99.90
35647;DHT22;28680;45.642;13.756;2023-11-19T02:29:45;9.80;99.90
35647;DHT22;28680;45.642;13.756;2023-11-19T02:32:10;9.70;99.90
35647;DHT22;28680;45.642;13.756;2023-11-19T02:34:38;9.70;99.90
35647;DHT22;28680;45.642;13.756;2023-11-19T02:37:04;9.80;99.90
35647;DHT22;28680;45.642;13.756;2023-11-19T02:39:30;10.00;99.90
35647;DHT22;28680;45.642;13.756;2023-11-19T02:41:56;10.10;99.90
35647;DHT22;28680;45.642;13.756;2023-11-19T02:44:22;10.20;99.90
35647;DHT22;28680;45.642;13.756;2023-11-19T02:46:48;10.20;99.90
35647;DHT22;28680;45.642;13.756;2023-11-19T02:49:14;10.30;99.90
35647;DHT22;28680;45.642;13.756;2023-11-19T02:51:40;10.30;99.90
35647;DHT22;28680;45.642;13.756;2023-11-19T02:54:06;10.20;99.90
35647;DHT22;28680;45.642;13.756;2023-11-19T02:56:32;10.30;99.90
35647;DHT22;28680;45.642;13.756;2023-11-19T02:59:02;10.30;99.90
35647;DHT22;28680;45.642;13.756;2023-11-19T03:01:40;10.30;99.90
35647;DHT22;28680;45.642;13.756;2023-11-19T03:04:14;10.30;99.90
35647;DHT22;28680;45.642;13.756;2023-11-19T03:06:42;10.20;99.90
35647;DHT22;28680;45.642;13.756;2023-11-19T03:09:08;10.30;99.90
35647;DHT22;28680;45.642;13.756;2023-11-19T03:11:36;10.30;99.90
35647;DHT22;28680;45.642;13.756;2023-11-19T03:14:02;10.30;99.90
35647;DHT22;28680;45.642;13.756;2023-11-19T03:16:28;10.30;99.90
35647;DHT22;28680;45.642;13.756;2023-11-19T03:18:54;10.30;99.90
35647;DHT22;28680;45.642;13.756;2023-11-19T03:21:29;10.30;99.90
35647;DHT22;28680;45.642;13.756;2023-11-19T03:23:57;10.20;99.90
35647;DHT22;28680;45.642;13.756;2023-11-19T03:26:26;10.30;99.90
35647;DHT22;28680;45.642;13.756;2023-11-19T03:28:53;10.30;99.90
35647;DHT22;28680;45.642;13.756;2023-11-19T03:31:18;10.40;99.90
35647;DHT22;28680;45.642;13.756;2023-11-19T03:33:44;10.40;99.90
35647;DHT22;28680;45.642;13.756;2023-11-19T03:36:10;10.40;99.90
35647;DHT22;28680;45.642;13.756;2023-11-19T03:38:36;10.50;99.90
35647;DHT22;28680;45.642;13.756;2023-11-19T03:41:10;10.50;99.90
35647;DHT22;28680;45.642;13.756;2023-11-19T03:43:35;10.50;99.90
35647;DHT22;28680;45.642;13.756;2023-11-19T03:46:01;10.50;99.90
35647;DHT22;28680;45.642;13.756;2023-11-19T03:48:27;10.50;99.90
35647;DHT22;28680;45.642;13.756;2023-11-19T03:50:52;10.50;99.90
35647;DHT22;28680;45.642;13.756;2023-11-19T03:53:18;10.50;99.90
35647;DHT22;28680;45.642;13.756;2023-11-19T03:55:44;10.50;99.90
35647;DHT22;28680;45.642;13.756;2023-11-19T03:58:10;10.60;99.90
35647;DHT22;28680;45.642;13.756;2023-11-19T04:00:35;10.60;99.90
35647;DHT22;28680;45.642;13.756;2023-11-19T04:03:01;10.70;99.90
35647;DHT22;28680;45.642;13.756;2023-11-19T04:05:28;10.70;99.90
35647;DHT22;28680;45.642;13.756;2023-11-19T04:18:39;10.40;99.90
35647;DHT22;28680;45.642;13.756;2023-11-19T04:21:08;10.70;99.90
35647;DHT22;28680;45.642;13.756;2023-11-19T04:23:33;10.80;99.90
35647;DHT22;28680;45.642;13.756;2023-11-19T04:26:03;10.70;99.90
35647;DHT22;28680;45.642;13.756;2023-11-19T04:28:30;10.90;99.90
35647;DHT22;28680;45.642;13.756;2023-11-19T04:30:55;10.90;99.90
35647;DHT22;28680;45.642;13.756;2023-11-19T04:33:21;11.00;99.90
35647;DHT22;28680;45.642;13.756;2023-11-19T04:35:47;11.00;99.90
35647;DHT22;28680;45.642;13.756;2023-11-19T04:38:13;11.00;99.90
35647;DHT22;28680;45.642;13.756;2023-11-19T04:40:38;11.10;99.90
35647;DHT22;28680;45.642;13.756;2023-11-19T04:43:04;11.10;99.90
35647;DHT22;28680;45.642;13.756;2023-11-19T04:45:30;11.10;99.90
35647;DHT22;28680;45.642;13.756;2023-11-19T04:47:55;11.20;99.90
35647;DHT22;28680;45.642;13.756;2023-11-19T04:50:21;11.20;99.90
35647;DHT22;28680;45.642;13.756;2023-11-19T04:52:47;11.20;99.90
35647;DHT22;28680;45.642;13.756;2023-11-19T04:55:13;11.30;99.90
35647;DHT22;28680;45.642;13.756;2023-11-19T04:57:40;11.30;99.90
35647;DHT22;28680;45.642;13.756;2023-11-19T05:00:05;11.30;99.90
35647;DHT22;28680;45.642;13.756;2023-11-19T05:02:34;11.30;99.90
35647;DHT22;28680;45.642;13.756;2023-11-19T05:05:00;11.30;99.90
35647;DHT22;28680;45.642;13.756;2023-11-19T05:07:26;11.30;99.90
35647;DHT22;28680;45.642;13.756;2023-11-19T05:09:52;11.20;99.90
35647;DHT22;28680;45.642;13.756;2023-11-19T05:12:17;11.20;99.90
35647;DHT22;28680;45.642;13.756;2023-11-19T05:14:43;11.20;99.90
35647;DHT22;28680;45.642;13.756;2023-11-19T05:17:15;11.20;99.90
35647;DHT22;28680;45.642;13.756;2023-11-19T05:19:40;11.30;99.90
35647;DHT22;28680;45.642;13.756;2023-11-19T05:22:06;11.30;99.90
35647;DHT22;28680;45.642;13.756;2023-11-19T05:24:33;11.20;99.90
35647;DHT22;28680;45.642;13.756;2023-11-19T05:26:58;11.20;99.90
35647;DHT22;28680;45.642;13.756;2023-11-19T05:29:24;11.10;99.90
35647;DHT22;28680;45.642;13.756;2023-11-19T05:31:50;11.00;99.90
35647;DHT22;28680;45.642;13.756;2023-11-19T05:34:15;10.90;99.90
35647;DHT22;28680;45.642;13.756;2023-11-19T05:36:41;11.00;99.90
35647;DHT22;28680;45.642;13.756;2023-11-19T05:39:07;11.00;99.90
35647;DHT22;28680;45.642;13.756;2023-11-19T05:41:32;11.00;99.90
35647;DHT22;28680;45.642;13.756;2023-11-19T05:43:58;11.00;99.90
35647;DHT22;28680;45.642;13.756;2023-11-19T05:46:24;11.00;99.90
35647;DHT22;28680;45.642;13.756;2023-11-19T05:48:51;11.10;99.90
35647;DHT22;28680;45.642;13.756;2023-11-19T05:51:17;11.10;99.90
35647;DHT22;28680;45.642;13.756;2023-11-19T05:53:43;11.20;99.90
35647;DHT22;28680;45.642;13.756;2023-11-19T05:56:09;11.40;99.90
35647;DHT22;28680;45.642;13.756;2023-11-19T05:58:35;11.30;99.90
35647;DHT22;28680;45.642;13.756;2023-11-19T06:01:01;11.30;99.90
35647;DHT22;28680;45.642;13.756;2023-11-19T06:03:27;11.30;99.90
35647;DHT22;28680;45.642;13.756;2023-11-19T06:05:53;11.30;99.90
35647;DHT22;28680;45.642;13.756;2023-11-19T06:08:20;11.20;99.90
35647;DHT22;28680;45.642;13.756;2023-11-19T06:10:46;11.20;99.90
35647;DHT22;28680;45.642;13.756;2023-11-19T06:13:15;11.20;99.90
35647;DHT22;28680;45.642;13.756;2023-11-19T06:15:50;11.20;99.90
35647;DHT22;28680;45.642;13.756;2023-11-19T06:18:16;11.10;99.90
35647;DHT22;28680;45.642;13.756;2023-11-19T06:20:43;11.10;99.90
35647;DHT22;28680;45.642;13.756;2023-11-19T06:23:09;11.10;99.90
35647;DHT22;28680;45.642;13.756;2023-11-19T06:25:34;11.00;99.90
35647;DHT22;28680;45.642;13.756;2023-11-19T06:28:00;10.90;99.90
35647;DHT22;28680;45.642;13.756;2023-11-19T06:30:26;10.90;99.90
35647;DHT22;28680;45.642;13.756;2023-11-19T06:32:54;10.80;99.90
35647;DHT22;28680;45.642;13.756;2023-11-19T06:35:19;10.80;99.90
35647;DHT22;28680;45.642;13.756;2023-11-19T06:37:45;10.80;99.90
35647;DHT22;28680;45.642;13.756;2023-11-19T06:40:11;10.80;99.90
35647;DHT22;28680;45.642;13.756;2023-11-19T06:42:37;10.80;99.90
35647;DHT22;28680;45.642;13.756;2023-11-19T06:45:04;10.90;99.90
35647;DHT22;28680;45.642;13.756;2023-11-19T06:47:30;10.90;99.90
35647;DHT22;28680;45.642;13.756;2023-11-19T06:49:55;10.90;99.90
35647;DHT22;28680;45.642;13.756;2023-11-19T06:52:21;10.90;99.90
35647;DHT22;28680;45.642;13.756;2023-11-19T06:54:47;10.90;99.90
35647;DHT22;28680;45.642;13.756;2023-11-19T06:57:12;11.00;99.90
35647;DHT22;28680;45.642;13.756;2023-11-19T06:59:38;11.10;99.90
35647;DHT22;28680;45.642;13.756;2023-11-19T07:02:04;11.20;99.90
35647;DHT22;28680;45.642;13.756;2023-11-19T07:04:31;11.20;99.90
35647;DHT22;28680;45.642;13.756;2023-11-19T07:06:56;11.20;99.90
35647;DHT22;28680;45.642;13.756;2023-11-19T07:09:22;11.30;99.90
35647;DHT22;28680;45.642;13.756;2023-11-19T07:11:48;11.40;99.90
35647;DHT22;28680;45.642;13.756;2023-11-19T07:14:17;11.50;99.90
35647;DHT22;28680;45.642;13.756;2023-11-19T07:16:43;11.50;99.90
35647;DHT22;28680;45.642;13.756;2023-11-19T07:19:09;11.50;99.90
35647;DHT22;28680;45.642;13.756;2023-11-19T07:21:35;11.50;99.90
35647;DHT22;28680;45.642;13.756;2023-11-19T07:24:05;11.60;99.90
35647;DHT22;28680;45.642;13.756;2023-11-19T07:26:31;11.80;99.90
35647;DHT22;28680;45.642;13.756;2023-11-19T07:28:56;12.10;99.90
35647;DHT22;28680;45.642;13.756;2023-11-19T07:31:23;12.40;99.90
35647;DHT22;28680;45.642;13.756;2023-11-19T07:33:49;12.60;99.90
35647;DHT22;28680;45.642;13.756;2023-11-19T07:36:15;12.90;99.90
35647;DHT22;28680;45.642;13.756;2023-11-19T07:38:40;13.10;99.90
35647;DHT22;28680;45.642;13.756;2023-11-19T07:41:06;13.30;99.90
35647;DHT22;28680;45.642;13.756;2023-11-19T07:43:32;13.60;99.90
35647;DHT22;28680;45.642;13.756;2023-11-19T07:45:58;13.90;99.90
35647;DHT22;28680;45.642;13.756;2023-11-19T07:48:27;14.00;99.90
35647;DHT22;28680;45.642;13.756;2023-11-19T07:50:53;14.10;99.90
35647;DHT22;28680;45.642;13.756;2023-11-19T07:53:19;14.30;99.90
35647;DHT22;28680;45.642;13.756;2023-11-19T07:56:05;14.50;99.90
35647;DHT22;28680;45.642;13.756;2023-11-19T08:06:36;13.40;99.90
35647;DHT22;28680;45.642;13.756;2023-11-19T08:09:02;13.60;99.90
35647;DHT22;28680;45.642;13.756;2023-11-19T08:11:27;13.40;99.90
35647;DHT22;28680;45.642;13.756;2023-11-19T08:13:53;14.00;99.90
35647;DHT22;28680;45.642;13.756;2023-11-19T08:16:19;14.70;99.90
35647;DHT22;28680;45.642;13.756;2023-11-19T08:18:44;15.00;99.90
35647;DHT22;28680;45.642;13.756;2023-11-19T08:21:10;15.20;99.90
35647;DHT22;28680;45.642;13.756;2023-11-19T08:23:36;15.30;99.90
35647;DHT22;28680;45.642;13.756;2023-11-19T08:26:01;15.60;99.90
35647;DHT22;28680;45.642;13.756;2023-11-19T08:28:27;16.20;99.90
35647;DHT22;28680;45.642;13.756;2023-11-19T08:30:53;16.60;99.90
35647;DHT22;28680;45.642;13.756;2023-11-19T08:33:18;16.80;99.90
35647;DHT22;28680;45.642;13.756;2023-11-19T08:35:44;16.30;99.90
35647;DHT22;28680;45.642;13.756;2023-11-19T08:38:10;15.90;99.90
35647;DHT22;28680;45.642;13.756;2023-11-19T08:40:36;15.80;99.90
35647;DHT22;28680;45.642;13.756;2023-11-19T08:43:04;16.50;99.90
35647;DHT22;28680;45.642;13.756;2023-11-19T08:45:29;17.20;99.90
35647;DHT22;28680;45.642;13.756;2023-11-19T08:47:55;17.40;99.90
35647;DHT22;28680;45.642;13.756;2023-11-19T08:50:21;17.30;99.90
35647;DHT22;28680;45.642;13.756;2023-11-19T08:52:46;17.40;99.90
35647;DHT22;28680;45.642;13.756;2023-11-19T08:55:12;17.30;99.90
35647;DHT22;28680;45.642;13.756;2023-11-19T08:57:39;17.40;99.90
35647;DHT22;28680;45.642;13.756;2023-11-19T09:00:05;16.90;99.90
35647;DHT22;28680;45.642;13.756;2023-11-19T09:02:34;16.30;99.90
35647;DHT22;28680;45.642;13.756;2023-11-19T09:05:00;16.00;99.90
35647;DHT22;28680;45.642;13.756;2023-11-19T09:07:27;16.30;99.90
35647;DHT22;28680;45.642;13.756;2023-11-19T09:09:52;17.00;99.90
35647;DHT22;28680;45.642;13.756;2023-11-19T09:12:19;17.20;99.90
35647;DHT22;28680;45.642;13.756;2023-11-19T09:14:44;17.90;99.90
35647;DHT22;28680;45.642;13.756;2023-11-19T09:17:11;17.80;99.90
35647;DHT22;28680;45.642;13.756;2023-11-19T09:19:37;18.20;99.90
35647;DHT22;28680;45.642;13.756;2023-11-19T09:22:03;18.70;99.90
35647;DHT22;28680;45.642;13.756;2023-11-19T09:24:29;18.60;99.90
35647;DHT22;28680;45.642;13.756;2023-11-19T09:26:54;19.10;99.90
35647;DHT22;28680;45.642;13.756;2023-11-19T09:29:22;19.80;99.90
35647;DHT22;28680;45.642;13.756;2023-11-19T09:31:49;19.90;99.90
35647;DHT22;28680;45.642;13.756;2023-11-19T09:34:14;19.60;99.90
35647;DHT22;28680;45.642;13.756;2023-11-19T09:36:40;18.40;99.90
35647;DHT22;28680;45.642;13.756;2023-11-19T09:39:10;17.70;99.90
35647;DHT22;28680;45.642;13.756;2023-11-19T09:41:35;17.20;99.90
35647;DHT22;28680;45.642;13.756;2023-11-19T09:44:02;16.90;99.90
35647;DHT22;28680;45.642;13.756;2023-11-19T09:46:28;16.80;99.90
35647;DHT22;28680;45.642;13.756;2023-11-19T09:48:54;16.70;99.90
35647;DHT22;28680;45.642;13.756;2023-11-19T09:51:21;16.50;99.90
35647;DHT22;28680;45.642;13.756;2023-11-19T09:53:47;16.30;99.90
35647;DHT22;28680;45.642;13.756;2023-11-19T09:56:14;16.30;99.90
35647;DHT22;28680;45.642;13.756;2023-11-19T09:58:42;16.10;99.90
35647;DHT22;28680;45.642;13.756;2023-11-19T10:01:08;16.30;99.90
35647;DHT22;28680;45.642;13.756;2023-11-19T10:03:36;16.20;99.90
35647;DHT22;28680;45.642;13.756;2023-11-19T10:06:09;16.10;99.90
35647;DHT22;28680;45.642;13.756;2023-11-19T10:08:38;15.80;99.90
35647;DHT22;28680;45.642;13.756;2023-11-19T10:11:07;15.60;99.90
35647;DHT22;28680;45.642;13.756;2023-11-19T10:13:34;15.40;99.90
35647;DHT22;28680;45.642;13.756;2023-11-19T10:16:04;15.50;99.90
35647;DHT22;28680;45.642;13.756;2023-11-19T10:18:29;15.50;99.90
35647;DHT22;28680;45.642;13.756;2023-11-19T10:20:55;15.40;99.90
35647;DHT22;28680;45.642;13.756;2023-11-19T10:23:21;15.30;99.90
35647;DHT22;28680;45.642;13.756;2023-11-19T10:25:47;15.30;99.90
35647;DHT22;28680;45.642;13.756;2023-11-19T10:28:14;15.30;99.90
35647;DHT22;28680;45.642;13.756;2023-11-19T10:30:41;15.30;99.90
35647;DHT22;28680;45.642;13.756;2023-11-19T10:35:33;15.40;99.90
35647;DHT22;28680;45.642;13.756;2023-11-19T10:37:59;15.40;99.90
35647;DHT22;28680;45.642;13.756;2023-11-19T10:40:38;15.40;99.90
35647;DHT22;28680;45.642;13.756;2023-11-19T10:43:07;15.80;99.90
35647;DHT22;28680;45.642;13.756;2023-11-19T10:45:33;16.20;99.90
35647;DHT22;28680;45.642;13.756;2023-11-19T10:47:59;16.30;99.90
35647;DHT22;28680;45.642;13.756;2023-11-19T10:50:28;16.10;99.90
35647;DHT22;28680;45.642;13.756;2023-11-19T10:52:57;16.10;99.90
35647;DHT22;28680;45.642;13.756;2023-11-19T10:55:30;16.10;99.90
35647;DHT22;28680;45.642;13.756;2023-11-19T10:57:59;15.90;99.90
35647;DHT22;28680;45.642;13.756;2023-11-19T11:00:26;16.30;99.90
35647;DHT22;28680;45.642;13.756;2023-11-19T11:02:54;16.90;99.90
35647;DHT22;28680;45.642;13.756;2023-11-19T11:05:21;17.60;99.90
35647;DHT22;28680;45.642;13.756;2023-11-19T11:07:47;17.80;99.90
35647;DHT22;28680;45.642;13.756;2023-11-19T11:10:14;17.90;99.90
35647;DHT22;28680;45.642;13.756;2023-11-19T11:12:41;18.00;99.90
35647;DHT22;28680;45.642;13.756;2023-11-19T11:15:08;17.90;99.90
35647;DHT22;28680;45.642;13.756;2023-11-19T11:17:37;17.70;99.90
35647;DHT22;28680;45.642;13.756;2023-11-19T11:20:04;17.80;99.90
35647;DHT22;28680;45.642;13.756;2023-11-19T11:22:33;18.20;99.90
35647;DHT22;28680;45.642;13.756;2023-11-19T11:25:06;18.60;99.90
35647;DHT22;28680;45.642;13.756;2023-11-19T11:30:14;19.40;99.90
35647;DHT22;28680;45.642;13.756;2023-11-19T11:32:43;20.40;99.90
35647;DHT22;28680;45.642;13.756;2023-11-19T11:37:43;21.60;99.90
35647;DHT22;28680;45.642;13.756;2023-11-19T11:40:14;21.00;99.90
35647;DHT22;28680;45.642;13.756;2023-11-19T11:42:41;21.30;99.90
35647;DHT22;28680;45.642;13.756;2023-11-19T11:50:09;22.00;99.90
35647;DHT22;28680;45.642;13.756;2023-11-19T11:58:07;23.30;99.90
35647;DHT22;28680;45.642;13.756;2023-11-19T12:00:36;23.50;99.90
35647;DHT22;28680;45.642;13.756;2023-11-19T12:03:06;23.60;99.90
35647;DHT22;28680;45.642;13.756;2023-11-19T12:05:32;22.90;99.90
35647;DHT22;28680;45.642;13.756;2023-11-19T12:07:59;21.80;99.90
35647;DHT22;28680;45.642;13.756;2023-11-19T12:10:28;21.30;99.90
35647;DHT22;28680;45.642;13.756;2023-11-19T12:12:58;20.90;99.90
35647;DHT22;28680;45.642;13.756;2023-11-19T12:15:23;20.40;99.90
35647;DHT22;28680;45.642;13.756;2023-11-19T12:17:52;20.00;99.90
35647;DHT22;28680;45.642;13.756;2023-11-19T12:20:18;20.20;99.90
35647;DHT22;28680;45.642;13.756;2023-11-19T12:22:45;21.40;99.90
35647;DHT22;28680;45.642;13.756;2023-11-19T12:25:11;21.40;99.90
35647;DHT22;28680;45.642;13.756;2023-11-19T12:27:41;20.90;99.90
35647;DHT22;28680;45.642;13.756;2023-11-19T12:30:07;21.60;99.90
35647;DHT22;28680;45.642;13.756;2023-11-19T12:32:40;21.20;99.90
35647;DHT22;28680;45.642;13.756;2023-11-19T12:35:06;20.60;99.90
35647;DHT22;28680;45.642;13.756;2023-11-19T12:37:38;21.30;99.90
35647;DHT22;28680;45.642;13.756;2023-11-19T12:40:10;21.90;99.90
35647;DHT22;28680;45.642;13.756;2023-11-19T12:42:36;22.40;99.90
35647;DHT22;28680;45.642;13.756;2023-11-19T12:45:02;22.60;99.90
35647;DHT22;28680;45.642;13.756;2023-11-19T12:47:28;22.80;99.90
35647;DHT22;28680;45.642;13.756;2023-11-19T12:49:57;23.30;99.90
35647;DHT22;28680;45.642;13.756;2023-11-19T12:52:23;23.10;99.90
35647;DHT22;28680;45.642;13.756;2023-11-19T12:54:49;23.30;99.90
35647;DHT22;28680;45.642;13.756;2023-11-19T12:57:15;23.40;99.90
35647;DHT22;28680;45.642;13.756;2023-11-19T12:59:41;23.70;99.90
35647;DHT22;28680;45.642;13.756;2023-11-19T13:02:07;23.80;99.90
35647;DHT22;28680;45.642;13.756;2023-11-19T13:04:33;24.10;99.90
35647;DHT22;28680;45.642;13.756;2023-11-19T13:06:59;24.60;99.90
35647;DHT22;28680;45.642;13.756;2023-11-19T13:09:28;23.90;99.90
35647;DHT22;28680;45.642;13.756;2023-11-19T13:11:54;24.10;99.90
35647;DHT22;28680;45.642;13.756;2023-11-19T13:14:20;23.50;99.90
35647;DHT22;28680;45.642;13.756;2023-11-19T13:16:46;23.70;99.90
35647;DHT22;28680;45.642;13.756;2023-11-19T13:19:12;23.90;99.90
35647;DHT22;28680;45.642;13.756;2023-11-19T13:21:38;23.60;99.90
35647;DHT22;28680;45.642;13.756;2023-11-19T13:24:05;23.80;99.90
35647;DHT22;28680;45.642;13.756;2023-11-19T13:26:31;24.40;99.90
35647;DHT22;28680;45.642;13.756;2023-11-19T13:28:57;24.70;99.90
35647;DHT22;28680;45.642;13.756;2023-11-19T13:31:26;24.40;99.90
35647;DHT22;28680;45.642;13.756;2023-11-19T13:33:51;24.50;99.90
35647;DHT22;28680;45.642;13.756;2023-11-19T13:36:17;23.40;99.90
35647;DHT22;28680;45.642;13.756;2023-11-19T13:38:43;23.30;99.90
35647;DHT22;28680;45.642;13.756;2023-11-19T13:41:10;23.20;99.90
35647;DHT22;28680;45.642;13.756;2023-11-19T13:43:37;23.10;99.90
35647;DHT22;28680;45.642;13.756;2023-11-19T13:46:03;22.10;99.90
35647;DHT22;28680;45.642;13.756;2023-11-19T13:48:29;20.90;99.90
35647;DHT22;28680;45.642;13.756;2023-11-19T13:50:55;19.90;99.90
35647;DHT22;28680;45.642;13.756;2023-11-19T13:53:21;19.30;99.90
35647;DHT22;28680;45.642;13.756;2023-11-19T13:55:46;18.90;99.90
35647;DHT22;28680;45.642;13.756;2023-11-19T13:58:13;18.60;99.90
35647;DHT22;28680;45.642;13.756;2023-11-19T14:00:38;18.30;99.90
35647;DHT22;28680;45.642;13.756;2023-11-19T14:03:04;18.20;99.90
35647;DHT22;28680;45.642;13.756;2023-11-19T14:05:30;18.00;99.90
35647;DHT22;28680;45.642;13.756;2023-11-19T14:07:56;17.90;99.90
35647;DHT22;28680;45.642;13.756;2023-11-19T14:10:23;17.90;99.90
35647;DHT22;28680;45.642;13.756;2023-11-19T14:12:48;17.80;99.90
35647;DHT22;28680;45.642;13.756;2023-11-19T14:15:20;17.60;99.90
35647;DHT22;28680;45.642;13.756;2023-11-19T14:17:46;17.30;99.90
35647;DHT22;28680;45.642;13.756;2023-11-19T14:20:12;17.20;99.90
35647;DHT22;28680;45.642;13.756;2023-11-19T14:22:41;17.10;99.90
35647;DHT22;28680;45.642;13.756;2023-11-19T14:25:08;17.10;99.90
35647;DHT22;28680;45.642;13.756;2023-11-19T14:27:36;17.00;99.90
35647;DHT22;28680;45.642;13.756;2023-11-19T14:30:04;17.30;99.90
35647;DHT22;28680;45.642;13.756;2023-11-19T14:32:30;17.50;99.90
35647;DHT22;28680;45.642;13.756;2023-11-19T14:34:56;17.80;99.90
35647;DHT22;28680;45.642;13.756;2023-11-19T14:37:22;17.70;99.90
35647;DHT22;28680;45.642;13.756;2023-11-19T14:39:47;17.60;99.90
35647;DHT22;28680;45.642;13.756;2023-11-19T14:42:16;17.30;99.90
35647;DHT22;28680;45.642;13.756;2023-11-19T14:44:42;16.90;99.90
35647;DHT22;28680;45.642;13.756;2023-11-19T14:47:07;16.80;99.90
35647;DHT22;28680;45.642;13.756;2023-11-19T14:49:36;16.50;99.90
35647;DHT22;28680;45.642;13.756;2023-11-19T14:52:04;16.30;99.90
35647;DHT22;28680;45.642;13.756;2023-11-19T14:54:30;16.20;99.90
35647;DHT22;28680;45.642;13.756;2023-11-19T14:56:56;16.10;99.90
35647;DHT22;28680;45.642;13.756;2023-11-19T14:59:22;16.00;99.90
35647;DHT22;28680;45.642;13.756;2023-11-19T15:01:47;15.90;99.90
35647;DHT22;28680;45.642;13.756;2023-11-19T15:04:13;15.80;99.90
35647;DHT22;28680;45.642;13.756;2023-11-19T15:06:39;15.70;99.90
35647;DHT22;28680;45.642;13.756;2023-11-19T15:09:05;15.80;99.90
35647;DHT22;28680;45.642;13.756;2023-11-19T15:11:33;15.60;99.90
35647;DHT22;28680;45.642;13.756;2023-11-19T15:13:58;15.60;99.90
35647;DHT22;28680;45.642;13.756;2023-11-19T15:16:25;15.40;99.90
35647;DHT22;28680;45.642;13.756;2023-11-19T15:18:59;15.20;99.90
35647;DHT22;28680;45.642;13.756;2023-11-19T15:21:26;15.20;99.90
35647;DHT22;28680;45.642;13.756;2023-11-19T15:23:52;15.20;99.90
35647;DHT22;28680;45.642;13.756;2023-11-19T15:26:18;15.20;99.90
35647;DHT22;28680;45.642;13.756;2023-11-19T15:28:44;15.20;99.90
35647;DHT22;28680;45.642;13.756;2023-11-19T15:31:10;15.10;99.90
35647;DHT22;28680;45.642;13.756;2023-11-19T15:33:36;15.10;99.90
35647;DHT22;28680;45.642;13.756;2023-11-19T15:36:02;15.00;99.90
35647;DHT22;28680;45.642;13.756;2023-11-19T15:38:36;15.00;99.90
35647;DHT22;28680;45.642;13.756;2023-11-19T15:41:01;15.00;99.90
35647;DHT22;28680;45.642;13.756;2023-11-19T15:43:30;14.90;99.90
35647;DHT22;28680;45.642;13.756;2023-11-19T15:45:56;14.80;99.90
35647;DHT22;28680;45.642;13.756;2023-11-19T15:48:22;14.80;99.90
35647;DHT22;28680;45.642;13.756;2023-11-19T15:50:47;14.80;99.90
35647;DHT22;28680;45.642;13.756;2023-11-19T15:53:13;14.80;99.90